sensor_id;sensor_type;location;lat;lon;timestamp;P1;durP1;ratioP1;P2;durP2;ratioP2
317;SDS011;146;53.448;10.228;2022-11-20T00:01:28;6.00;;;5.50;;
317;SDS011;146;53.448;10.228;2022-11-20T00:03:56;5.53;;;5.03;;
317;SDS011;146;53.448;10.228;2022-11-20T00:06:25;5.87;;;5.37;;
317;SDS011;146;53.448;10.228;2022-11-20T00:08:54;6.80;;;5.63;;
317;SDS011;146;53.448;10.228;2022-11-20T00:11:22;5.93;;;5.40;;
317;SDS011;146;53.448;10.228;2022-11-20T00:13:51;5.47;;;4.93;;
317;SDS011;146;53.448;10.228;2022-11-20T00:16:22;5.60;;;4.97;;
317;SDS011;146;53.448;10.228;2022-11-20T00:18:51;7.57;;;5.90;;
317;SDS011;146;53.448;10.228;2022-11-20T00:21:22;6.03;;;5.50;;
317;SDS011;146;53.448;10.228;2022-11-20T00:23:52;7.60;;;5.30;;
317;SDS011;146;53.448;10.228;2022-11-20T00:26:21;6.23;;;5.73;;
317;SDS011;146;53.448;10.228;2022-11-20T00:28:49;6.43;;;5.80;;
317;SDS011;146;53.448;10.228;2022-11-20T00:31:17;5.83;;;5.33;;
317;SDS011;146;53.448;10.228;2022-11-20T00:33:45;5.60;;;5.10;;
317;SDS011;146;53.448;10.228;2022-11-20T00:36:13;5.67;;;5.17;;
317;SDS011;146;53.448;10.228;2022-11-20T00:38:43;6.57;;;5.87;;
317;SDS011;146;53.448;10.228;2022-11-20T00:41:12;5.83;;;5.07;;
317;SDS011;146;53.448;10.228;2022-11-20T00:43:41;6.20;;;5.70;;
317;SDS011;146;53.448;10.228;2022-11-20T00:46:08;5.53;;;5.00;;
317;SDS011;146;53.448;10.228;2022-11-20T00:48:36;5.57;;;5.13;;
317;SDS011;146;53.448;10.228;2022-11-20T00:51:03;5.90;;;5.33;;
317;SDS011;146;53.448;10.228;2022-11-20T00:53:36;5.70;;;5.20;;
317;SDS011;146;53.448;10.228;2022-11-20T00:56:04;5.67;;;5.00;;
317;SDS011;146;53.448;10.228;2022-11-20T00:58:35;5.80;;;4.90;;
317;SDS011;146;53.448;10.228;2022-11-20T01:01:04;6.20;;;5.60;;
317;SDS011;146;53.448;10.228;2022-11-20T01:03:32;5.80;;;5.30;;
317;SDS011;146;53.448;10.228;2022-11-20T01:06:00;6.10;;;4.60;;
317;SDS011;146;53.448;10.228;2022-11-20T01:08:31;5.43;;;5.00;;
317;SDS011;146;53.448;10.228;2022-11-20T01:10:59;5.93;;;5.33;;
317;SDS011;146;53.448;10.228;2022-11-20T01:13:26;4.50;;;4.10;;
317;SDS011;146;53.448;10.228;2022-11-20T01:16:08;6.10;;;5.40;;
317;SDS011;146;53.448;10.228;2022-11-20T01:18:36;5.40;;;4.90;;
317;SDS011;146;53.448;10.228;2022-11-20T01:21:05;5.20;;;4.70;;
317;SDS011;146;53.448;10.228;2022-11-20T01:23:33;5.43;;;5.03;;
317;SDS011;146;53.448;10.228;2022-11-20T01:26:02;6.97;;;5.23;;
317;SDS011;146;53.448;10.228;2022-11-20T01:28:30;6.53;;;5.87;;
317;SDS011;146;53.448;10.228;2022-11-20T01:30:58;5.80;;;5.30;;
317;SDS011;146;53.448;10.228;2022-11-20T01:33:27;4.90;;;4.50;;
317;SDS011;146;53.448;10.228;2022-11-20T01:36:02;7.20;;;4.70;;
317;SDS011;146;53.448;10.228;2022-11-20T01:38:30;5.87;;;5.37;;
317;SDS011;146;53.448;10.228;2022-11-20T01:40:57;5.40;;;4.90;;
317;SDS011;146;53.448;10.228;2022-11-20T01:43:24;5.38;;;4.93;;
317;SDS011;146;53.448;10.228;2022-11-20T01:45:58;5.70;;;4.87;;
317;SDS011;146;53.448;10.228;2022-11-20T01:48:30;5.57;;;5.07;;
317;SDS011;146;53.448;10.228;2022-11-20T01:51:02;5.57;;;4.87;;
317;SDS011;146;53.448;10.228;2022-11-20T01:53:31;6.57;;;4.80;;
317;SDS011;146;53.448;10.228;2022-11-20T01:56:01;6.20;;;5.40;;
317;SDS011;146;53.448;10.228;2022-11-20T01:58:32;5.60;;;5.10;;
317;SDS011;146;53.448;10.228;2022-11-20T02:01:02;4.83;;;4.43;;
317;SDS011;146;53.448;10.228;2022-11-20T02:03:31;7.18;;;4.90;;
317;SDS011;146;53.448;10.228;2022-11-20T02:06:01;5.43;;;4.93;;
317;SDS011;146;53.448;10.228;2022-11-20T02:08:34;6.10;;;5.30;;
317;SDS011;146;53.448;10.228;2022-11-20T02:11:02;5.30;;;4.90;;
317;SDS011;146;53.448;10.228;2022-11-20T02:13:29;5.33;;;4.93;;
317;SDS011;146;53.448;10.228;2022-11-20T02:16:13;5.90;;;5.20;;
317;SDS011;146;53.448;10.228;2022-11-20T02:18:48;6.07;;;4.77;;
317;SDS011;146;53.448;10.228;2022-11-20T02:21:27;5.57;;;5.07;;
317;SDS011;146;53.448;10.228;2022-11-20T02:24:04;6.28;;;5.75;;
317;SDS011;146;53.448;10.228;2022-11-20T02:26:35;5.60;;;5.10;;
317;SDS011;146;53.448;10.228;2022-11-20T02:29:07;5.17;;;4.70;;
317;SDS011;146;53.448;10.228;2022-11-20T02:31:37;6.57;;;5.93;;
317;SDS011;146;53.448;10.228;2022-11-20T02:34:07;8.27;;;6.00;;
317;SDS011;146;53.448;10.228;2022-11-20T02:36:35;5.90;;;5.40;;
317;SDS011;146;53.448;10.228;2022-11-20T02:39:06;5.23;;;4.83;;
317;SDS011;146;53.448;10.228;2022-11-20T02:41:34;7.73;;;6.10;;
317;SDS011;146;53.448;10.228;2022-11-20T02:44:02;5.90;;;5.40;;
317;SDS011;146;53.448;10.228;2022-11-20T02:46:30;4.93;;;4.53;;
317;SDS011;146;53.448;10.228;2022-11-20T02:48:57;6.20;;;5.47;;
317;SDS011;146;53.448;10.228;2022-11-20T02:51:24;5.70;;;5.00;;
317;SDS011;146;53.448;10.228;2022-11-20T02:53:51;6.67;;;6.17;;
317;SDS011;146;53.448;10.228;2022-11-20T02:56:19;6.23;;;5.63;;
317;SDS011;146;53.448;10.228;2022-11-20T02:58:46;5.57;;;5.07;;
317;SDS011;146;53.448;10.228;2022-11-20T03:01:13;6.20;;;5.70;;
317;SDS011;146;53.448;10.228;2022-11-20T03:03:40;6.10;;;5.60;;
317;SDS011;146;53.448;10.228;2022-11-20T03:06:08;5.93;;;5.43;;
317;SDS011;146;53.448;10.228;2022-11-20T03:08:35;5.40;;;4.90;;
317;SDS011;146;53.448;10.228;2022-11-20T03:11:02;8.60;;;5.23;;
317;SDS011;146;53.448;10.228;2022-11-20T03:13:32;5.87;;;5.23;;
317;SDS011;146;53.448;10.228;2022-11-20T03:16:04;6.00;;;5.40;;
317;SDS011;146;53.448;10.228;2022-11-20T03:18:35;6.20;;;5.60;;
317;SDS011;146;53.448;10.228;2022-11-20T03:21:02;6.30;;;5.70;;
317;SDS011;146;53.448;10.228;2022-11-20T03:23:30;5.90;;;5.40;;
317;SDS011;146;53.448;10.228;2022-11-20T03:26:06;7.18;;;6.47;;
317;SDS011;146;53.448;10.228;2022-11-20T03:28:39;6.10;;;5.50;;
317;SDS011;146;53.448;10.228;2022-11-20T03:31:07;8.00;;;5.80;;
317;SDS011;146;53.448;10.228;2022-11-20T03:33:35;5.13;;;4.63;;
317;SDS011;146;53.448;10.228;2022-11-20T03:36:03;6.13;;;5.57;;
317;SDS011;146;53.448;10.228;2022-11-20T03:38:33;6.40;;;5.80;;
317;SDS011;146;53.448;10.228;2022-11-20T03:41:01;5.83;;;5.33;;
317;SDS011;146;53.448;10.228;2022-11-20T03:43:28;6.87;;;6.27;;
317;SDS011;146;53.448;10.228;2022-11-20T03:45:57;7.57;;;6.07;;
317;SDS011;146;53.448;10.228;2022-11-20T03:48:24;6.20;;;5.60;;
317;SDS011;146;53.448;10.228;2022-11-20T03:50:52;6.10;;;5.50;;
317;SDS011;146;53.448;10.228;2022-11-20T03:53:19;7.40;;;6.20;;
317;SDS011;146;53.448;10.228;2022-11-20T03:55:50;6.17;;;5.53;;
317;SDS011;146;53.448;10.228;2022-11-20T03:58:17;5.43;;;4.97;;
317;SDS011;146;53.448;10.228;2022-11-20T04:00:44;6.10;;;5.50;;
317;SDS011;146;53.448;10.228;2022-11-20T04:03:12;6.20;;;5.60;;
317;SDS011;146;53.448;10.228;2022-11-20T04:05:39;6.37;;;5.77;;
317;SDS011;146;53.448;10.228;2022-11-20T04:08:06;6.20;;;5.70;;
317;SDS011;146;53.448;10.228;2022-11-20T04:10:33;6.30;;;5.70;;
317;SDS011;146;53.448;10.228;2022-11-20T04:13:00;6.47;;;5.87;;
317;SDS011;146;53.448;10.228;2022-11-20T04:15:27;6.00;;;5.40;;
317;SDS011;146;53.448;10.228;2022-11-20T04:17:54;6.27;;;5.67;;
317;SDS011;146;53.448;10.228;2022-11-20T04:20:22;6.80;;;5.47;;
317;SDS011;146;53.448;10.228;2022-11-20T04:22:52;5.60;;;5.10;;
317;SDS011;146;53.448;10.228;2022-11-20T04:25:19;6.75;;;5.78;;
317;SDS011;146;53.448;10.228;2022-11-20T04:27:46;5.80;;;5.20;;
317;SDS011;146;53.448;10.228;2022-11-20T04:30:13;5.87;;;5.37;;
317;SDS011;146;53.448;10.228;2022-11-20T04:32:40;5.65;;;5.15;;
317;SDS011;146;53.448;10.228;2022-11-20T04:35:07;5.83;;;5.30;;
317;SDS011;146;53.448;10.228;2022-11-20T04:37:36;5.17;;;4.77;;
317;SDS011;146;53.448;10.228;2022-11-20T04:40:03;6.40;;;5.80;;
317;SDS011;146;53.448;10.228;2022-11-20T04:42:30;5.83;;;4.80;;
317;SDS011;146;53.448;10.228;2022-11-20T04:44:57;5.63;;;5.17;;
317;SDS011;146;53.448;10.228;2022-11-20T04:47:24;6.43;;;5.30;;
317;SDS011;146;53.448;10.228;2022-11-20T04:49:51;5.13;;;4.72;;
317;SDS011;146;53.448;10.228;2022-11-20T04:52:18;4.70;;;4.27;;
317;SDS011;146;53.448;10.228;2022-11-20T04:54:46;5.50;;;5.00;;
317;SDS011;146;53.448;10.228;2022-11-20T04:57:13;5.30;;;4.83;;
317;SDS011;146;53.448;10.228;2022-11-20T04:59:41;5.90;;;5.37;;
317;SDS011;146;53.448;10.228;2022-11-20T05:02:08;5.63;;;4.75;;
317;SDS011;146;53.448;10.228;2022-11-20T05:04:35;5.82;;;5.00;;
317;SDS011;146;53.448;10.228;2022-11-20T05:07:02;4.90;;;4.50;;
317;SDS011;146;53.448;10.228;2022-11-20T05:09:31;5.93;;;5.33;;
317;SDS011;146;53.448;10.228;2022-11-20T05:11:59;6.37;;;5.50;;
317;SDS011;146;53.448;10.228;2022-11-20T05:14:26;5.00;;;4.57;;
317;SDS011;146;53.448;10.228;2022-11-20T05:16:53;5.47;;;4.97;;
317;SDS011;146;53.448;10.228;2022-11-20T05:19:20;6.20;;;5.60;;
317;SDS011;146;53.448;10.228;2022-11-20T05:21:47;5.87;;;5.37;;
317;SDS011;146;53.448;10.228;2022-11-20T05:24:14;5.67;;;5.17;;
317;SDS011;146;53.448;10.228;2022-11-20T05:26:40;5.67;;;5.17;;
317;SDS011;146;53.448;10.228;2022-11-20T05:29:10;5.67;;;5.27;;
317;SDS011;146;53.448;10.228;2022-11-20T05:31:38;6.87;;;6.13;;
317;SDS011;146;53.448;10.228;2022-11-20T05:34:06;5.70;;;4.70;;
317;SDS011;146;53.448;10.228;2022-11-20T05:36:33;6.50;;;5.53;;
317;SDS011;146;53.448;10.228;2022-11-20T05:39:00;5.97;;;5.40;;
317;SDS011;146;53.448;10.228;2022-11-20T05:41:27;5.87;;;5.33;;
317;SDS011;146;53.448;10.228;2022-11-20T05:43:55;6.53;;;5.20;;
317;SDS011;146;53.448;10.228;2022-11-20T05:46:23;5.27;;;4.77;;
317;SDS011;146;53.448;10.228;2022-11-20T05:48:51;6.03;;;5.53;;
317;SDS011;146;53.448;10.228;2022-11-20T05:51:18;6.07;;;5.47;;
317;SDS011;146;53.448;10.228;2022-11-20T05:53:45;5.57;;;5.03;;
317;SDS011;146;53.448;10.228;2022-11-20T05:56:13;5.60;;;5.00;;
317;SDS011;146;53.448;10.228;2022-11-20T05:58:42;6.03;;;5.43;;
317;SDS011;146;53.448;10.228;2022-11-20T06:01:10;6.13;;;5.63;;
317;SDS011;146;53.448;10.228;2022-11-20T06:03:40;10.80;;;5.70;;
317;SDS011;146;53.448;10.228;2022-11-20T06:06:11;5.40;;;4.90;;
317;SDS011;146;53.448;10.228;2022-11-20T06:08:38;5.73;;;5.23;;
317;SDS011;146;53.448;10.228;2022-11-20T06:11:06;6.50;;;5.90;;
317;SDS011;146;53.448;10.228;2022-11-20T06:13:33;6.57;;;5.97;;
317;SDS011;146;53.448;10.228;2022-11-20T06:16:01;5.70;;;5.20;;
317;SDS011;146;53.448;10.228;2022-11-20T06:18:28;5.43;;;5.00;;
317;SDS011;146;53.448;10.228;2022-11-20T06:21:01;5.37;;;4.87;;
317;SDS011;146;53.448;10.228;2022-11-20T06:23:32;5.60;;;5.20;;
317;SDS011;146;53.448;10.228;2022-11-20T06:26:01;5.90;;;5.40;;
317;SDS011;146;53.448;10.228;2022-11-20T06:28:29;6.88;;;6.35;;
317;SDS011;146;53.448;10.228;2022-11-20T06:30:55;5.70;;;5.20;;
317;SDS011;146;53.448;10.228;2022-11-20T06:33:23;7.10;;;6.40;;
317;SDS011;146;53.448;10.228;2022-11-20T06:35:50;6.77;;;6.00;;
317;SDS011;146;53.448;10.228;2022-11-20T06:38:18;6.60;;;5.53;;
317;SDS011;146;53.448;10.228;2022-11-20T06:40:45;7.50;;;5.95;;
317;SDS011;146;53.448;10.228;2022-11-20T06:43:12;5.75;;;5.25;;
317;SDS011;146;53.448;10.228;2022-11-20T06:45:39;6.00;;;5.33;;
317;SDS011;146;53.448;10.228;2022-11-20T06:48:06;6.65;;;6.05;;
317;SDS011;146;53.448;10.228;2022-11-20T06:50:32;6.20;;;5.60;;
317;SDS011;146;53.448;10.228;2022-11-20T06:53:03;6.57;;;6.00;;
317;SDS011;146;53.448;10.228;2022-11-20T06:55:32;6.53;;;5.90;;
317;SDS011;146;53.448;10.228;2022-11-20T06:57:59;7.68;;;6.72;;
317;SDS011;146;53.448;10.228;2022-11-20T07:00:26;7.90;;;7.10;;
317;SDS011;146;53.448;10.228;2022-11-20T07:02:53;7.70;;;7.00;;
317;SDS011;146;53.448;10.228;2022-11-20T07:05:20;5.80;;;5.30;;
317;SDS011;146;53.448;10.228;2022-11-20T07:07:47;5.43;;;4.93;;
317;SDS011;146;53.448;10.228;2022-11-20T07:10:14;6.13;;;5.63;;
317;SDS011;146;53.448;10.228;2022-11-20T07:12:48;5.43;;;5.03;;
317;SDS011;146;53.448;10.228;2022-11-20T07:15:15;5.82;;;5.43;;
317;SDS011;146;53.448;10.228;2022-11-20T07:17:42;6.35;;;5.85;;
317;SDS011;146;53.448;10.228;2022-11-20T07:20:10;6.20;;;5.40;;
317;SDS011;146;53.448;10.228;2022-11-20T07:22:37;5.60;;;5.10;;
317;SDS011;146;53.448;10.228;2022-11-20T07:25:05;7.78;;;5.75;;
317;SDS011;146;53.448;10.228;2022-11-20T07:27:33;6.30;;;5.70;;
317;SDS011;146;53.448;10.228;2022-11-20T07:30:02;7.07;;;5.60;;
317;SDS011;146;53.448;10.228;2022-11-20T07:32:30;5.67;;;5.13;;
317;SDS011;146;53.448;10.228;2022-11-20T07:34:57;5.70;;;5.20;;
317;SDS011;146;53.448;10.228;2022-11-20T07:37:24;7.03;;;5.47;;
317;SDS011;146;53.448;10.228;2022-11-20T07:39:51;4.87;;;4.37;;
317;SDS011;146;53.448;10.228;2022-11-20T07:42:18;6.60;;;5.10;;
317;SDS011;146;53.448;10.228;2022-11-20T07:44:45;6.37;;;5.40;;
317;SDS011;146;53.448;10.228;2022-11-20T07:47:13;25.00;;;13.60;;
317;SDS011;146;53.448;10.228;2022-11-20T07:49:40;6.27;;;5.77;;
317;SDS011;146;53.448;10.228;2022-11-20T07:52:06;6.50;;;5.40;;
317;SDS011;146;53.448;10.228;2022-11-20T07:54:33;5.53;;;5.03;;
317;SDS011;146;53.448;10.228;2022-11-20T07:57:00;5.35;;;4.85;;
317;SDS011;146;53.448;10.228;2022-11-20T07:59:27;6.47;;;5.97;;
317;SDS011;146;53.448;10.228;2022-11-20T08:01:54;6.07;;;5.47;;
317;SDS011;146;53.448;10.228;2022-11-20T08:04:23;7.63;;;5.40;;
317;SDS011;146;53.448;10.228;2022-11-20T08:06:52;6.47;;;5.97;;
317;SDS011;146;53.448;10.228;2022-11-20T08:09:19;5.33;;;4.80;;
317;SDS011;146;53.448;10.228;2022-11-20T08:11:46;6.43;;;5.93;;
317;SDS011;146;53.448;10.228;2022-11-20T08:14:31;5.77;;;5.20;;
317;SDS011;146;53.448;10.228;2022-11-20T08:16:57;6.80;;;6.13;;
317;SDS011;146;53.448;10.228;2022-11-20T08:19:26;5.87;;;5.27;;
317;SDS011;146;53.448;10.228;2022-11-20T08:21:54;6.07;;;5.53;;
317;SDS011;146;53.448;10.228;2022-11-20T08:24:22;6.37;;;5.50;;
317;SDS011;146;53.448;10.228;2022-11-20T08:26:49;7.37;;;5.97;;
317;SDS011;146;53.448;10.228;2022-11-20T08:29:17;6.83;;;6.23;;
317;SDS011;146;53.448;10.228;2022-11-20T08:31:43;6.73;;;6.00;;
317;SDS011;146;53.448;10.228;2022-11-20T08:34:13;6.37;;;5.87;;
317;SDS011;146;53.448;10.228;2022-11-20T08:36:42;7.00;;;6.05;;
317;SDS011;146;53.448;10.228;2022-11-20T08:39:12;7.37;;;6.57;;
317;SDS011;146;53.448;10.228;2022-11-20T08:41:39;6.60;;;5.43;;
317;SDS011;146;53.448;10.228;2022-11-20T08:44:07;6.80;;;6.20;;
317;SDS011;146;53.448;10.228;2022-11-20T08:46:34;7.93;;;7.30;;
317;SDS011;146;53.448;10.228;2022-11-20T08:49:02;7.80;;;7.00;;
317;SDS011;146;53.448;10.228;2022-11-20T08:51:30;8.70;;;7.13;;
317;SDS011;146;53.448;10.228;2022-11-20T08:53:58;9.50;;;7.97;;
317;SDS011;146;53.448;10.228;2022-11-20T08:56:25;7.83;;;7.10;;
317;SDS011;146;53.448;10.228;2022-11-20T08:58:52;12.30;;;11.00;;
317;SDS011;146;53.448;10.228;2022-11-20T09:01:22;9.27;;;8.30;;
317;SDS011;146;53.448;10.228;2022-11-20T09:03:49;11.07;;;8.87;;
317;SDS011;146;53.448;10.228;2022-11-20T09:06:16;11.90;;;8.97;;
317;SDS011;146;53.448;10.228;2022-11-20T09:08:43;10.90;;;9.80;;
317;SDS011;146;53.448;10.228;2022-11-20T09:11:13;9.80;;;8.83;;
317;SDS011;146;53.448;10.228;2022-11-20T09:13:46;11.27;;;9.13;;
317;SDS011;146;53.448;10.228;2022-11-20T09:16:54;11.13;;;9.90;;
317;SDS011;146;53.448;10.228;2022-11-20T09:19:23;10.67;;;9.67;;
317;SDS011;146;53.448;10.228;2022-11-20T09:21:50;9.30;;;7.80;;
317;SDS011;146;53.448;10.228;2022-11-20T09:24:17;8.60;;;7.80;;
317;SDS011;146;53.448;10.228;2022-11-20T09:26:49;9.30;;;8.40;;
317;SDS011;146;53.448;10.228;2022-11-20T09:29:16;7.33;;;6.60;;
317;SDS011;146;53.448;10.228;2022-11-20T09:31:43;8.23;;;7.20;;
317;SDS011;146;53.448;10.228;2022-11-20T09:34:10;8.20;;;7.40;;
317;SDS011;146;53.448;10.228;2022-11-20T09:36:37;6.60;;;6.07;;
317;SDS011;146;53.448;10.228;2022-11-20T09:39:06;7.30;;;6.57;;
317;SDS011;146;53.448;10.228;2022-11-20T09:41:36;7.17;;;6.50;;
317;SDS011;146;53.448;10.228;2022-11-20T09:44:22;8.37;;;7.57;;
317;SDS011;146;53.448;10.228;2022-11-20T09:47:00;8.60;;;6.80;;
317;SDS011;146;53.448;10.228;2022-11-20T09:49:32;8.87;;;7.97;;
317;SDS011;146;53.448;10.228;2022-11-20T09:52:10;9.80;;;8.73;;
317;SDS011;146;53.448;10.228;2022-11-20T09:54:44;8.13;;;7.33;;
317;SDS011;146;53.448;10.228;2022-11-20T09:57:13;8.10;;;7.30;;
317;SDS011;146;53.448;10.228;2022-11-20T09:59:49;7.73;;;6.97;;
317;SDS011;146;53.448;10.228;2022-11-20T10:02:24;10.13;;;9.23;;
317;SDS011;146;53.448;10.228;2022-11-20T10:04:55;8.13;;;7.43;;
317;SDS011;146;53.448;10.228;2022-11-20T10:07:29;6.83;;;6.13;;
317;SDS011;146;53.448;10.228;2022-11-20T10:10:02;7.50;;;6.57;;
317;SDS011;146;53.448;10.228;2022-11-20T10:12:33;7.30;;;6.70;;
317;SDS011;146;53.448;10.228;2022-11-20T10:15:18;6.63;;;5.60;;
317;SDS011;146;53.448;10.228;2022-11-20T10:17:59;5.93;;;5.43;;
317;SDS011;146;53.448;10.228;2022-11-20T10:20:40;8.50;;;6.40;;
317;SDS011;146;53.448;10.228;2022-11-20T10:23:17;6.33;;;5.83;;
317;SDS011;146;53.448;10.228;2022-11-20T10:25:55;5.53;;;5.03;;
317;SDS011;146;53.448;10.228;2022-11-20T10:28:37;6.23;;;5.63;;
317;SDS011;146;53.448;10.228;2022-11-20T10:31:14;5.07;;;4.60;;
317;SDS011;146;53.448;10.228;2022-11-20T10:33:52;5.13;;;4.63;;
317;SDS011;146;53.448;10.228;2022-11-20T10:36:23;4.80;;;4.40;;
317;SDS011;146;53.448;10.228;2022-11-20T10:38:54;12.60;;;8.37;;
317;SDS011;146;53.448;10.228;2022-11-20T10:41:26;17.80;;;7.57;;
317;SDS011;146;53.448;10.228;2022-11-20T10:44:05;5.20;;;4.30;;
317;SDS011;146;53.448;10.228;2022-11-20T10:49:47;5.33;;;4.83;;
317;SDS011;146;53.448;10.228;2022-11-20T10:52:19;5.20;;;4.70;;
317;SDS011;146;53.448;10.228;2022-11-20T10:54:59;4.80;;;4.40;;
317;SDS011;146;53.448;10.228;2022-11-20T10:57:37;5.40;;;5.00;;
317;SDS011;146;53.448;10.228;2022-11-20T11:00:14;4.93;;;4.60;;
317;SDS011;146;53.448;10.228;2022-11-20T11:02:46;5.80;;;5.30;;
317;SDS011;146;53.448;10.228;2022-11-20T11:05:33;4.93;;;4.43;;
317;SDS011;146;53.448;10.228;2022-11-20T11:08:04;5.70;;;4.60;;
317;SDS011;146;53.448;10.228;2022-11-20T11:10:39;4.87;;;4.47;;
317;SDS011;146;53.448;10.228;2022-11-20T11:13:18;5.37;;;4.50;;
317;SDS011;146;53.448;10.228;2022-11-20T11:15:48;4.57;;;4.17;;
317;SDS011;146;53.448;10.228;2022-11-20T11:18:23;5.07;;;4.17;;
317;SDS011;146;53.448;10.228;2022-11-20T11:20:51;4.20;;;3.80;;
317;SDS011;146;53.448;10.228;2022-11-20T11:23:26;3.80;;;3.50;;
317;SDS011;146;53.448;10.228;2022-11-20T11:25:57;3.63;;;3.33;;
317;SDS011;146;53.448;10.228;2022-11-20T11:28:25;4.67;;;4.27;;
317;SDS011;146;53.448;10.228;2022-11-20T11:30:54;4.50;;;4.10;;
317;SDS011;146;53.448;10.228;2022-11-20T11:33:23;4.70;;;4.30;;
317;SDS011;146;53.448;10.228;2022-11-20T11:35:52;4.50;;;4.20;;
317;SDS011;146;53.448;10.228;2022-11-20T11:38:22;5.43;;;5.03;;
317;SDS011;146;53.448;10.228;2022-11-20T11:40:55;5.53;;;5.13;;
317;SDS011;146;53.448;10.228;2022-11-20T11:43:23;4.13;;;3.80;;
317;SDS011;146;53.448;10.228;2022-11-20T11:46:23;4.30;;;3.90;;
317;SDS011;146;53.448;10.228;2022-11-20T11:48:54;4.13;;;3.80;;
317;SDS011;146;53.448;10.228;2022-11-20T11:51:28;4.17;;;3.73;;
317;SDS011;146;53.448;10.228;2022-11-20T11:53:59;4.37;;;3.97;;
317;SDS011;146;53.448;10.228;2022-11-20T11:56:29;4.47;;;4.07;;
317;SDS011;146;53.448;10.228;2022-11-20T11:59:00;4.37;;;3.97;;
317;SDS011;146;53.448;10.228;2022-11-20T12:01:35;4.70;;;4.17;;
317;SDS011;146;53.448;10.228;2022-11-20T12:04:11;4.10;;;3.80;;
317;SDS011;146;53.448;10.228;2022-11-20T12:06:45;5.07;;;4.57;;
317;SDS011;146;53.448;10.228;2022-11-20T12:09:17;4.10;;;3.80;;
317;SDS011;146;53.448;10.228;2022-11-20T12:11:49;4.53;;;4.20;;
317;SDS011;146;53.448;10.228;2022-11-20T12:14:21;3.97;;;3.67;;
317;SDS011;146;53.448;10.228;2022-11-20T12:16:55;3.93;;;3.60;;
317;SDS011;146;53.448;10.228;2022-11-20T12:19:22;3.90;;;3.50;;
317;SDS011;146;53.448;10.228;2022-11-20T12:21:52;3.70;;;3.40;;
317;SDS011;146;53.448;10.228;2022-11-20T12:24:31;3.33;;;3.03;;
317;SDS011;146;53.448;10.228;2022-11-20T12:27:14;3.03;;;2.80;;
317;SDS011;146;53.448;10.228;2022-11-20T12:30:09;4.07;;;3.67;;
317;SDS011;146;53.448;10.228;2022-11-20T12:32:48;3.13;;;2.93;;
317;SDS011;146;53.448;10.228;2022-11-20T12:38:32;3.73;;;3.10;;
317;SDS011;146;53.448;10.228;2022-11-20T12:41:12;4.90;;;3.30;;
317;SDS011;146;53.448;10.228;2022-11-20T12:44:03;3.43;;;3.13;;
317;SDS011;146;53.448;10.228;2022-11-20T12:46:58;3.83;;;3.53;;
317;SDS011;146;53.448;10.228;2022-11-20T12:49:39;3.60;;;3.37;;
317;SDS011;146;53.448;10.228;2022-11-20T12:52:20;3.53;;;3.23;;
317;SDS011;146;53.448;10.228;2022-11-20T12:55:16;3.10;;;2.90;;
317;SDS011;146;53.448;10.228;2022-11-20T12:57:50;3.10;;;2.90;;
317;SDS011;146;53.448;10.228;2022-11-20T13:00:23;3.27;;;3.00;;
317;SDS011;146;53.448;10.228;2022-11-20T13:02:56;3.27;;;3.07;;
317;SDS011;146;53.448;10.228;2022-11-20T13:05:36;2.73;;;2.53;;
317;SDS011;146;53.448;10.228;2022-11-20T13:08:11;2.67;;;2.47;;
317;SDS011;146;53.448;10.228;2022-11-20T13:10:46;2.50;;;2.30;;
317;SDS011;146;53.448;10.228;2022-11-20T13:13:20;2.80;;;2.60;;
317;SDS011;146;53.448;10.228;2022-11-20T13:15:54;2.50;;;2.30;;
317;SDS011;146;53.448;10.228;2022-11-20T13:18:25;2.40;;;2.30;;
317;SDS011;146;53.448;10.228;2022-11-20T13:20:53;2.50;;;2.30;;
317;SDS011;146;53.448;10.228;2022-11-20T13:23:24;2.57;;;2.37;;
317;SDS011;146;53.448;10.228;2022-11-20T13:26:04;1.90;;;1.80;;
317;SDS011;146;53.448;10.228;2022-11-20T13:28:39;2.63;;;2.37;;
317;SDS011;146;53.448;10.228;2022-11-20T13:31:09;2.63;;;2.50;;
317;SDS011;146;53.448;10.228;2022-11-20T13:33:53;2.90;;;2.70;;
317;SDS011;146;53.448;10.228;2022-11-20T13:36:23;2.53;;;2.43;;
317;SDS011;146;53.448;10.228;2022-11-20T13:38:53;2.00;;;1.90;;
317;SDS011;146;53.448;10.228;2022-11-20T13:41:25;2.23;;;2.13;;
317;SDS011;146;53.448;10.228;2022-11-20T13:43:59;1.93;;;1.83;;
317;SDS011;146;53.448;10.228;2022-11-20T13:46:35;2.77;;;2.20;;
317;SDS011;146;53.448;10.228;2022-11-20T13:49:07;2.33;;;2.13;;
317;SDS011;146;53.448;10.228;2022-11-20T13:51:40;2.93;;;2.73;;
317;SDS011;146;53.448;10.228;2022-11-20T13:54:24;2.73;;;2.53;;
317;SDS011;146;53.448;10.228;2022-11-20T13:57:14;2.40;;;2.20;;
317;SDS011;146;53.448;10.228;2022-11-20T14:00:16;2.77;;;2.17;;
317;SDS011;146;53.448;10.228;2022-11-20T14:02:46;2.27;;;2.07;;
317;SDS011;146;53.448;10.228;2022-11-20T14:05:25;2.30;;;2.10;;
317;SDS011;146;53.448;10.228;2022-11-20T14:07:53;3.00;;;2.80;;
317;SDS011;146;53.448;10.228;2022-11-20T14:10:21;2.30;;;2.20;;
317;SDS011;146;53.448;10.228;2022-11-20T14:12:50;2.40;;;2.30;;
317;SDS011;146;53.448;10.228;2022-11-20T14:15:26;2.17;;;2.07;;
317;SDS011;146;53.448;10.228;2022-11-20T14:17:58;5.53;;;3.23;;
317;SDS011;146;53.448;10.228;2022-11-20T14:20:28;3.17;;;2.87;;
317;SDS011;146;53.448;10.228;2022-11-20T14:23:00;3.20;;;3.00;;
317;SDS011;146;53.448;10.228;2022-11-20T14:25:31;3.00;;;2.80;;
317;SDS011;146;53.448;10.228;2022-11-20T14:27:58;2.97;;;2.77;;
317;SDS011;146;53.448;10.228;2022-11-20T14:30:26;3.77;;;3.57;;
317;SDS011;146;53.448;10.228;2022-11-20T14:32:56;3.63;;;3.33;;
317;SDS011;146;53.448;10.228;2022-11-20T14:35:44;3.33;;;3.13;;
317;SDS011;146;53.448;10.228;2022-11-20T14:38:18;3.60;;;3.30;;
317;SDS011;146;53.448;10.228;2022-11-20T14:40:48;2.83;;;2.63;;
317;SDS011;146;53.448;10.228;2022-11-20T14:43:16;3.00;;;2.80;;
317;SDS011;146;53.448;10.228;2022-11-20T14:45:48;3.10;;;2.90;;
317;SDS011;146;53.448;10.228;2022-11-20T14:48:21;3.27;;;3.07;;
317;SDS011;146;53.448;10.228;2022-11-20T14:50:53;3.20;;;3.00;;
317;SDS011;146;53.448;10.228;2022-11-20T14:53:23;2.70;;;2.50;;
317;SDS011;146;53.448;10.228;2022-11-20T14:55:54;3.00;;;2.80;;
317;SDS011;146;53.448;10.228;2022-11-20T14:58:23;3.40;;;3.10;;
317;SDS011;146;53.448;10.228;2022-11-20T15:01:04;3.23;;;3.03;;
317;SDS011;146;53.448;10.228;2022-11-20T15:03:32;3.50;;;3.30;;
317;SDS011;146;53.448;10.228;2022-11-20T15:06:00;5.00;;;4.60;;
317;SDS011;146;53.448;10.228;2022-11-20T15:08:28;4.57;;;4.23;;
317;SDS011;146;53.448;10.228;2022-11-20T15:10:55;4.80;;;4.50;;
317;SDS011;146;53.448;10.228;2022-11-20T15:13:24;4.17;;;3.83;;
317;SDS011;146;53.448;10.228;2022-11-20T15:15:55;5.03;;;4.63;;
317;SDS011;146;53.448;10.228;2022-11-20T15:18:24;4.33;;;3.93;;
317;SDS011;146;53.448;10.228;2022-11-20T15:20:54;4.83;;;4.33;;
317;SDS011;146;53.448;10.228;2022-11-20T15:23:22;4.63;;;4.23;;
317;SDS011;146;53.448;10.228;2022-11-20T15:25:51;6.47;;;5.80;;
317;SDS011;146;53.448;10.228;2022-11-20T15:28:19;6.53;;;5.80;;
317;SDS011;146;53.448;10.228;2022-11-20T15:30:49;5.87;;;5.40;;
317;SDS011;146;53.448;10.228;2022-11-20T15:33:16;5.97;;;5.37;;
317;SDS011;146;53.448;10.228;2022-11-20T15:35:43;4.90;;;4.60;;
317;SDS011;146;53.448;10.228;2022-11-20T15:38:10;10.20;;;6.97;;
317;SDS011;146;53.448;10.228;2022-11-20T15:40:37;10.07;;;8.90;;
317;SDS011;146;53.448;10.228;2022-11-20T15:43:06;12.03;;;11.03;;
317;SDS011;146;53.448;10.228;2022-11-20T15:45:38;6.60;;;6.10;;
317;SDS011;146;53.448;10.228;2022-11-20T15:48:09;5.80;;;5.40;;
317;SDS011;146;53.448;10.228;2022-11-20T15:50:38;9.80;;;9.03;;
317;SDS011;146;53.448;10.228;2022-11-20T15:53:09;9.80;;;9.10;;
317;SDS011;146;53.448;10.228;2022-11-20T15:55:36;11.30;;;10.20;;
317;SDS011;146;53.448;10.228;2022-11-20T15:58:03;8.60;;;7.87;;